createdAt,value
2022-08-05T00:02:21.684Z,17.43
2022-08-05T00:04:55.604Z,17.43
2022-08-05T00:07:59.253Z,17.50
2022-08-05T00:10:10.161Z,17.44
2022-08-05T00:12:56.112Z,17.40
2022-08-05T00:15:55.326Z,17.35
2022-08-05T00:18:10.472Z,17.27
2022-08-05T00:20:48.878Z,17.30
2022-08-05T00:23:15.589Z,17.33
2022-08-05T00:25:45.974Z,17.35
2022-08-05T00:28:13.199Z,17.45
2022-08-05T00:30:41.196Z,17.38
2022-08-05T00:33:15.442Z,17.34
2022-08-05T00:39:58.053Z,17.45
2022-08-05T00:42:33.912Z,17.45
2022-08-05T00:45:01.253Z,17.40
2022-08-05T00:47:53.184Z,17.41
2022-08-05T00:50:14.705Z,17.39
2022-08-05T00:52:41.732Z,17.35
2022-08-05T00:55:12.265Z,17.37
2022-08-05T00:57:58.282Z,17.48
2022-08-05T01:00:26.356Z,17.43
2022-08-05T01:02:53.090Z,17.35
2022-08-05T01:05:19.870Z,17.36
2022-08-05T01:08:29.860Z,17.26
2022-08-05T01:10:40.575Z,17.31
2022-08-05T01:13:59.187Z,17.26
2022-08-05T01:16:49.918Z,17.22
2022-08-05T01:19:21.780Z,17.25
2022-08-05T01:22:18.833Z,17.32
2022-08-05T01:24:50.819Z,17.32
2022-08-05T01:27:55.526Z,17.37
2022-08-05T01:30:33.504Z,17.31
2022-08-05T01:33:06.151Z,17.20
2022-08-05T01:35:51.557Z,17.22
2022-08-05T01:38:27.532Z,17.24
2022-08-05T01:41:01.549Z,17.24
2022-08-05T01:43:29.789Z,17.17
2022-08-05T01:45:57.712Z,17.17
2022-08-05T01:48:27.579Z,17.19
2022-08-05T01:50:56.737Z,17.25
2022-08-05T01:53:54.630Z,17.32
2022-08-05T01:56:13.851Z,17.24
2022-08-05T01:59:04.166Z,17.27
2022-08-05T02:01:39.982Z,17.29
2022-08-05T02:04:09.295Z,17.26
2022-08-05T02:06:38.981Z,17.21
2022-08-05T02:09:07.161Z,17.18
2022-08-05T02:11:48.157Z,17.34
2022-08-05T02:14:53.289Z,17.34
2022-08-05T02:18:28.317Z,17.26
2022-08-05T02:20:22.187Z,17.36
2022-08-05T02:22:58.450Z,17.29
2022-08-05T02:25:33.126Z,17.24
2022-08-05T02:28:02.428Z,17.21
2022-08-05T02:30:54.071Z,17.15
2022-08-05T02:33:24.314Z,17.25
2022-08-05T02:36:05.111Z,17.34
2022-08-05T02:38:35.053Z,17.23
2022-08-05T02:41:14.521Z,17.25
2022-08-05T02:44:02.663Z,17.31
2022-08-05T02:46:31.710Z,17.29
2022-08-05T02:48:59.256Z,17.30
2022-08-05T02:51:28.502Z,17.26
2022-08-05T02:54:36.127Z,17.30
2022-08-05T02:57:01.975Z,17.20
2022-08-05T02:59:30.566Z,17.19
2022-08-05T03:02:17.717Z,17.28
2022-08-05T03:04:45.565Z,17.16
2022-08-05T03:07:21.434Z,17.22
2022-08-05T03:10:00.485Z,17.12
2022-08-05T03:12:33.110Z,17.10
2022-08-05T03:14:59.778Z,17.24
2022-08-05T03:17:26.800Z,17.27
2022-08-05T03:19:54.304Z,17.34
2022-08-05T03:22:31.892Z,17.24
2022-08-05T03:25:02.320Z,17.08
2022-08-05T03:27:59.307Z,17.02
2022-08-05T03:30:33.776Z,17.10
2022-08-05T03:33:02.841Z,17.06
2022-08-05T03:35:33.626Z,16.90
2022-08-05T03:38:02.709Z,16.91
2022-08-05T03:40:31.864Z,16.83
2022-08-05T03:43:01.512Z,16.87
2022-08-05T03:45:55.232Z,16.76
2022-08-05T03:48:29.518Z,16.70
2022-08-05T03:52:38.246Z,16.69
2022-08-05T03:55:52.580Z,16.55
2022-08-05T03:56:54.522Z,16.76
2022-08-05T03:59:46.984Z,16.58
2022-08-05T04:02:17.578Z,16.62
2022-08-05T04:05:03.522Z,16.54
2022-08-05T04:07:31.140Z,16.44
2022-08-05T04:10:00.014Z,16.30
2022-08-05T04:12:29.938Z,16.24
2022-08-05T04:14:59.171Z,16.19
2022-08-05T04:17:26.233Z,16.18
2022-08-05T04:20:23.438Z,16.17
2022-08-05T04:22:50.152Z,16.12
2022-08-05T04:25:17.194Z,16.05
2022-08-05T04:27:57.287Z,16.05
2022-08-05T04:30:24.858Z,16.01
2022-08-05T04:32:53.281Z,15.91
2022-08-05T04:35:20.125Z,15.88
2022-08-05T04:38:02.604Z,15.90
2022-08-05T04:40:37.232Z,15.81
2022-08-05T04:43:11.010Z,15.74
2022-08-05T04:45:48.252Z,15.71
2022-08-05T04:48:18.488Z,15.76
2022-08-05T04:51:03.218Z,15.66
2022-08-05T04:53:36.560Z,15.73
2022-08-05T04:56:14.746Z,15.71
2022-08-05T04:58:54.033Z,15.67
2022-08-05T05:02:05.791Z,15.70
2022-08-05T05:04:07.229Z,15.73
2022-08-05T05:06:39.653Z,15.75
2022-08-05T05:09:14.181Z,15.70
2022-08-05T05:11:54.457Z,15.70
2022-08-05T05:14:27.973Z,15.71
2022-08-05T05:17:00.224Z,15.76
2022-08-05T05:19:37.194Z,15.79
2022-08-05T05:22:22.727Z,15.78
2022-08-05T05:24:56.917Z,15.71
2022-08-05T05:27:25.306Z,15.78
2022-08-05T05:30:15.567Z,15.84
2022-08-05T05:32:57.191Z,15.84
2022-08-05T05:35:29.009Z,15.91
2022-08-05T05:38:09.471Z,16.03
2022-08-05T05:40:47.940Z,16.09
2022-08-05T05:43:27.693Z,16.25
2022-08-05T05:46:05.207Z,16.36
2022-08-05T05:48:34.506Z,16.40
2022-08-05T05:51:15.263Z,16.56
2022-08-05T05:53:54.110Z,16.61
2022-08-05T05:56:33.306Z,16.62
2022-08-05T05:59:08.209Z,16.60
2022-08-05T06:01:40.147Z,16.64
2022-08-05T06:04:12.706Z,16.54
2022-08-05T06:06:47.542Z,16.56
2022-08-05T06:09:17.389Z,16.41
2022-08-05T06:12:01.732Z,16.47
2022-08-05T06:14:34.795Z,16.55
2022-08-05T06:17:22.407Z,16.66
2022-08-05T06:19:56.908Z,16.64
2022-08-05T06:22:33.770Z,16.81
2022-08-05T06:25:01.848Z,16.87
2022-08-05T06:28:11.506Z,16.98
2022-08-05T06:30:34.955Z,17.23
2022-08-05T06:33:02.342Z,17.37
2022-08-05T06:36:07.208Z,17.40
2022-08-05T06:38:15.870Z,17.77
2022-08-05T06:40:44.701Z,18.01
2022-08-05T06:43:57.868Z,18.10
2022-08-05T06:46:06.761Z,18.09
2022-08-05T06:48:54.755Z,18.23
2022-08-05T06:51:29.089Z,18.17
2022-08-05T06:53:58.454Z,18.12
2022-08-05T06:56:26.638Z,18.03
2022-08-05T06:58:53.779Z,17.94
2022-08-05T07:01:20.780Z,17.90
2022-08-05T07:03:47.814Z,17.69
2022-08-05T07:06:15.315Z,17.88
2022-08-05T07:08:47.793Z,17.89
2022-08-05T07:11:22.200Z,17.93
2022-08-05T07:14:07.910Z,17.94
2022-08-05T07:17:56.816Z,17.74
2022-08-05T07:22:28.646Z,17.51
2022-08-05T07:25:23.908Z,17.51
2022-08-05T07:27:57.250Z,17.56
2022-08-05T07:30:32.628Z,17.47
2022-08-05T07:33:05.088Z,17.58
2022-08-05T07:36:04.134Z,17.61
2022-08-05T07:38:33.312Z,17.73
2022-08-05T07:42:08.234Z,17.62
2022-08-05T07:43:57.772Z,17.58
2022-08-05T07:46:26.891Z,17.65
2022-08-05T07:49:01.587Z,17.79
2022-08-05T07:51:40.353Z,17.88
2022-08-05T07:54:09.945Z,17.87
2022-08-05T07:57:00.888Z,17.96
2022-08-05T07:59:38.808Z,17.98
2022-08-05T08:02:15.701Z,18.15
2022-08-05T08:04:47.411Z,18.60
2022-08-05T08:07:15.124Z,18.81
2022-08-05T08:09:44.982Z,18.61
2022-08-05T08:12:35.611Z,18.66
2022-08-05T08:15:02.496Z,18.97
2022-08-05T08:17:30.642Z,18.79
2022-08-05T08:20:22.635Z,18.91
2022-08-05T08:22:43.932Z,18.94
2022-08-05T08:25:16.015Z,18.95
2022-08-05T08:27:47.441Z,19.22
2022-08-05T08:30:28.572Z,18.86
2022-08-05T08:33:04.680Z,19.20
2022-08-05T08:35:41.348Z,19.51
2022-08-05T08:38:36.083Z,19.32
2022-08-05T08:41:09.911Z,19.60
2022-08-05T08:45:19.797Z,19.69
2022-08-05T08:46:26.075Z,20.03
2022-08-05T08:49:06.317Z,20.31
2022-08-05T08:52:06.098Z,20.68
2022-08-05T08:54:30.993Z,20.97
2022-08-05T08:56:59.538Z,20.95
2022-08-05T08:59:27.727Z,20.32
2022-08-05T09:02:01.996Z,20.85
2022-08-05T09:04:30.410Z,21.13
2022-08-05T09:06:58.463Z,21.48
2022-08-05T09:09:34.834Z,21.74
2022-08-05T09:12:14.412Z,21.90
2022-08-05T09:14:58.131Z,21.54
2022-08-05T09:17:40.501Z,21.63
2022-08-05T09:20:11.073Z,21.44
2022-08-05T09:23:05.558Z,21.89
2022-08-05T09:26:00.897Z,21.95
2022-08-05T09:28:31.643Z,21.90
2022-08-05T09:31:23.353Z,22.26
2022-08-05T09:33:55.069Z,22.20
2022-08-05T09:36:27.661Z,22.04
2022-08-05T09:39:18.083Z,21.94
2022-08-05T09:41:56.924Z,21.90
2022-08-05T09:44:46.048Z,22.17
2022-08-05T09:47:20.490Z,22.57
2022-08-05T09:50:01.680Z,22.65
2022-08-05T09:52:29.302Z,22.90
2022-08-05T09:55:06.514Z,22.80
2022-08-05T09:57:49.402Z,22.98
2022-08-05T10:00:26.417Z,22.82
2022-08-05T10:02:58.304Z,22.90
2022-08-05T10:05:27.815Z,22.68
2022-08-05T10:08:34.771Z,22.60
2022-08-05T10:10:53.871Z,22.89
2022-08-05T10:13:47.772Z,23.77
2022-08-05T10:16:41.764Z,23.26
2022-08-05T10:19:23.602Z,23.12
2022-08-05T10:22:09.112Z,23.21
2022-08-05T10:24:42.348Z,22.83
2022-08-05T10:27:14.337Z,23.38
2022-08-05T10:30:07.014Z,23.51
2022-08-05T10:32:52.274Z,23.27
2022-08-05T10:35:18.007Z,24.19
2022-08-05T10:37:45.293Z,22.98
2022-08-05T10:40:29.943Z,23.75
2022-08-05T10:43:04.898Z,24.15
2022-08-05T10:45:42.214Z,24.74
2022-08-05T10:48:57.261Z,25.22
2022-08-05T10:51:28.543Z,25.18
2022-08-05T10:53:56.023Z,25.27
2022-08-05T10:56:30.424Z,24.85
2022-08-05T10:59:03.793Z,24.95
2022-08-05T11:01:55.012Z,24.37
2022-08-05T11:04:28.241Z,25.27
2022-08-05T11:06:57.875Z,25.55
2022-08-05T11:09:39.268Z,25.67
2022-08-05T11:12:42.103Z,26.06
2022-08-05T11:15:21.651Z,26.55
2022-08-05T11:17:57.810Z,26.54
2022-08-05T11:20:32.963Z,25.67
2022-08-05T11:23:05.770Z,26.09
2022-08-05T11:26:04.816Z,26.87
2022-08-05T11:28:22.002Z,25.96
2022-08-05T11:30:55.969Z,25.67
2022-08-05T11:33:43.748Z,25.49
2022-08-05T11:36:16.173Z,24.08
2022-08-05T11:39:01.665Z,24.54
2022-08-05T11:41:58.330Z,24.42
2022-08-05T11:44:40.442Z,26.09
2022-08-05T11:47:10.461Z,26.55
2022-08-05T11:49:42.982Z,26.15
2022-08-05T11:52:11.335Z,26.32
2022-08-05T11:54:40.731Z,26.43
2022-08-05T11:57:25.873Z,26.78
2022-08-05T11:59:54.338Z,27.28
2022-08-05T12:02:31.154Z,26.19
2022-08-05T12:05:00.817Z,25.45
2022-08-05T12:08:09.012Z,26.21
2022-08-05T12:10:24.861Z,26.17
2022-08-05T12:13:15.668Z,26.39
2022-08-05T12:15:49.734Z,26.93
2022-08-05T12:18:32.340Z,27.53
2022-08-05T12:21:12.259Z,26.15
2022-08-05T12:23:43.080Z,25.23
2022-08-05T12:26:09.922Z,24.19
2022-08-05T12:28:38.210Z,23.96
2022-08-05T12:31:05.620Z,25.43
2022-08-05T12:33:36.643Z,25.92
2022-08-05T12:36:08.470Z,26.36
2022-08-05T12:38:40.103Z,27.31
2022-08-05T12:41:16.446Z,26.24
2022-08-05T12:43:54.987Z,27.44
2022-08-05T12:46:29.079Z,26.30
2022-08-05T12:49:14.586Z,26.95
2022-08-05T12:52:14.426Z,26.90
2022-08-05T12:54:47.638Z,26.69
2022-08-05T12:57:17.438Z,26.12
2022-08-05T13:01:57.418Z,25.82
2022-08-05T13:02:36.235Z,25.16
2022-08-05T13:05:06.488Z,24.93
2022-08-05T13:07:59.579Z,26.99
2022-08-05T13:10:20.469Z,26.32
2022-08-05T13:12:51.163Z,25.83
2022-08-05T13:15:35.922Z,26.35
2022-08-05T13:18:08.492Z,26.95
2022-08-05T13:20:35.835Z,25.81
2022-08-05T13:23:07.520Z,25.12
2022-08-05T13:25:51.805Z,25.79
2022-08-05T13:28:22.068Z,24.73
2022-08-05T13:30:48.845Z,24.41
2022-08-05T13:34:22.728Z,25.41
2022-08-05T13:36:05.206Z,26.28
2022-08-05T13:38:38.161Z,24.30
2022-08-05T13:41:05.016Z,25.47
2022-08-05T13:43:44.956Z,26.62
2022-08-05T13:46:35.691Z,26.25
2022-08-05T13:49:09.777Z,27.35
2022-08-05T13:51:40.893Z,28.22
2022-08-05T13:54:11.779Z,26.37
2022-08-05T13:56:39.893Z,26.80
2022-08-05T13:59:20.107Z,27.51
2022-08-05T14:01:56.857Z,24.89
2022-08-05T14:04:49.782Z,27.03
2022-08-05T14:07:25.715Z,26.58
2022-08-05T14:10:11.922Z,26.91
2022-08-05T14:12:39.592Z,28.17
2022-08-05T14:16:05.185Z,27.27
2022-08-05T14:17:59.492Z,25.95
2022-08-05T14:20:27.593Z,27.62
2022-08-05T14:22:54.583Z,28.13
2022-08-05T14:25:22.461Z,28.55
2022-08-05T14:27:54.489Z,28.47
2022-08-05T14:30:21.476Z,29.17
2022-08-05T14:32:48.870Z,29.01
2022-08-05T14:35:16.266Z,26.70
2022-08-05T14:37:52.132Z,25.04
2022-08-05T14:40:24.308Z,26.28
2022-08-05T14:42:51.564Z,27.19
2022-08-05T14:45:18.742Z,27.05
2022-08-05T14:48:04.270Z,24.63
2022-08-05T14:50:31.794Z,25.47
2022-08-05T14:52:59.613Z,27.25
2022-08-05T14:55:38.748Z,26.39
2022-08-05T14:58:11.169Z,25.76
2022-08-05T15:00:58.416Z,26.35
2022-08-05T15:03:25.917Z,26.74
2022-08-05T15:06:08.184Z,28.23
2022-08-05T15:08:57.997Z,27.10
2022-08-05T15:11:51.697Z,27.33
2022-08-05T15:14:12.194Z,28.51
2022-08-05T15:16:58.692Z,29.71
2022-08-05T15:19:26.299Z,30.15
2022-08-05T15:21:52.911Z,30.87
2022-08-05T15:24:19.681Z,31.32
2022-08-05T15:26:46.926Z,32.61
2022-08-05T15:29:15.277Z,32.73
2022-08-05T15:31:41.818Z,31.95
2022-08-05T15:34:31.729Z,29.32
2022-08-05T15:36:55.037Z,32.36
2022-08-05T15:41:01.991Z,35.43
2022-08-05T15:42:55.195Z,37.73
2022-08-05T15:44:55.196Z,37.72
2022-08-05T15:47:22.586Z,36.44
2022-08-05T15:49:55.984Z,35.70
2022-08-05T15:52:53.790Z,38.33
2022-08-05T15:55:15.457Z,36.99
2022-08-05T15:57:43.179Z,36.91
2022-08-05T16:00:12.437Z,37.29
2022-08-05T16:02:43.757Z,36.47
2022-08-05T16:05:11.226Z,36.63
2022-08-05T16:07:38.294Z,36.29
2022-08-05T16:10:12.989Z,31.10
2022-08-05T16:12:39.822Z,33.57
2022-08-05T16:15:06.977Z,33.97
2022-08-05T16:17:36.241Z,35.64
2022-08-05T16:20:11.744Z,36.47
2022-08-05T16:22:39.102Z,37.16
2022-08-05T16:25:09.915Z,35.09
2022-08-05T16:28:01.063Z,30.96
2022-08-05T16:30:26.514Z,29.73
2022-08-05T16:32:55.632Z,33.57
2022-08-05T16:35:28.116Z,35.87
2022-08-05T16:38:03.073Z,35.57
2022-08-05T16:40:51.788Z,34.84
2022-08-05T16:43:23.814Z,34.52
2022-08-05T16:46:04.781Z,32.97
2022-08-05T16:48:36.579Z,32.25
2022-08-05T16:51:08.693Z,32.64
2022-08-05T16:54:02.546Z,32.36
2022-08-05T16:56:29.357Z,31.45
2022-08-05T16:58:56.780Z,32.03
2022-08-05T17:01:24.311Z,30.92
2022-08-05T17:03:51.941Z,30.56
2022-08-05T17:06:19.067Z,29.91
2022-08-05T17:08:52.224Z,30.78
2022-08-05T17:11:25.324Z,30.44
2022-08-05T17:14:05.874Z,30.71
2022-08-05T17:16:35.908Z,30.60
2022-08-05T17:19:07.815Z,30.58
2022-08-05T17:21:37.704Z,30.49
2022-08-05T17:24:28.343Z,30.48
2022-08-05T17:26:58.047Z,29.80
2022-08-05T17:29:33.484Z,29.67
2022-08-05T17:32:06.773Z,29.97
2022-08-05T17:34:35.088Z,30.18
2022-08-05T17:37:01.862Z,30.27
2022-08-05T17:39:34.162Z,30.32
2022-08-05T17:42:18.439Z,30.38
2022-08-05T17:44:50.263Z,28.31
2022-08-05T17:47:22.467Z,27.87
2022-08-05T17:50:00.429Z,27.34
2022-08-05T17:52:34.950Z,27.01
2022-08-05T17:55:22.087Z,26.42
2022-08-05T17:57:50.264Z,26.50
2022-08-05T18:00:17.427Z,26.29
2022-08-05T18:02:46.780Z,25.86
2022-08-05T18:05:13.685Z,25.66
2022-08-05T18:07:43.986Z,25.62
2022-08-05T18:10:14.136Z,25.31
2022-08-05T18:12:50.978Z,25.24
2022-08-05T18:15:17.634Z,24.96
2022-08-05T18:18:00.201Z,25.09
2022-08-05T18:20:32.430Z,24.60
2022-08-05T18:23:09.535Z,24.05
2022-08-05T18:25:39.484Z,24.41
2022-08-05T18:28:10.575Z,24.34
2022-08-05T18:30:39.175Z,24.13
2022-08-05T18:33:07.444Z,24.06
2022-08-05T18:35:59.829Z,23.67
2022-08-05T18:38:26.502Z,23.44
2022-08-05T18:41:57.469Z,23.25
2022-08-05T18:43:42.738Z,23.15
2022-08-05T18:46:10.240Z,22.92
2022-08-05T18:48:41.834Z,22.85
2022-08-05T18:52:05.292Z,22.76
2022-08-05T18:54:14.928Z,22.60
2022-08-05T18:56:51.164Z,22.49
2022-08-05T18:59:44.470Z,22.24
2022-08-05T19:02:11.217Z,22.19
2022-08-05T19:05:01.118Z,21.85
2022-08-05T19:07:30.198Z,21.82
2022-08-05T19:10:13.027Z,21.69
2022-08-05T19:12:40.243Z,21.61
2022-08-05T19:15:25.019Z,21.67
2022-08-05T19:18:09.786Z,21.53
2022-08-05T19:20:41.330Z,21.47
2022-08-05T19:24:03.726Z,21.26
2022-08-05T19:26:01.009Z,21.20
2022-08-05T19:28:28.785Z,21.18
2022-08-05T19:30:55.931Z,21.17
2022-08-05T19:33:35.398Z,20.95
2022-08-05T19:36:06.778Z,20.72
2022-08-05T19:38:36.771Z,20.86
2022-08-05T19:41:06.791Z,21.06
2022-08-05T19:44:06.490Z,21.24
2022-08-05T19:46:30.078Z,21.25
2022-08-05T19:49:02.859Z,20.82
2022-08-05T19:52:05.702Z,20.89
2022-08-05T19:54:27.094Z,20.97
2022-08-05T19:56:58.582Z,20.83
2022-08-05T19:59:56.103Z,20.65
2022-08-05T20:02:13.045Z,20.72
2022-08-05T20:04:42.811Z,20.66
2022-08-05T20:07:10.389Z,20.48
2022-08-05T20:09:54.849Z,20.46
2022-08-05T20:12:24.762Z,20.20
2022-08-05T20:14:52.863Z,20.25
2022-08-05T20:17:23.606Z,19.96
2022-08-05T20:19:57.021Z,20.01
2022-08-05T20:22:25.066Z,20.05
2022-08-05T20:24:54.385Z,20.02
2022-08-05T20:27:26.640Z,20.02
2022-08-05T20:29:58.495Z,19.86
2022-08-05T20:32:26.930Z,19.79
2022-08-05T20:34:53.961Z,19.83
2022-08-05T20:38:08.006Z,19.75
2022-08-05T20:40:08.362Z,19.57
2022-08-05T20:42:35.607Z,19.47
2022-08-05T20:45:02.520Z,19.49
2022-08-05T20:47:32.460Z,19.29
2022-08-05T20:49:59.848Z,19.36
2022-08-05T20:52:29.635Z,19.35
2022-08-05T20:55:15.861Z,19.32
2022-08-05T20:57:44.910Z,19.19
2022-08-05T21:00:41.029Z,19.13
2022-08-05T21:03:06.973Z,19.06
2022-08-05T21:05:48.213Z,18.94
2022-08-05T21:08:21.286Z,18.95
2022-08-05T21:10:54.778Z,18.97
2022-08-05T21:13:36.789Z,18.91
2022-08-05T21:16:11.726Z,18.85
2022-08-05T21:18:38.546Z,18.80
2022-08-05T21:21:11.800Z,18.70
2022-08-05T21:23:39.013Z,18.70
2022-08-05T21:26:08.329Z,18.65
2022-08-05T21:28:40.213Z,18.75
2022-08-05T21:31:14.593Z,18.66
2022-08-05T21:33:43.426Z,18.53
2022-08-05T21:36:27.551Z,18.59
2022-08-05T21:38:54.639Z,18.51
2022-08-05T21:41:21.461Z,18.41
2022-08-05T21:44:01.815Z,18.32
2022-08-05T21:46:34.671Z,18.29
2022-08-05T21:49:07.388Z,18.27
2022-08-05T21:52:21.348Z,18.19
2022-08-05T21:54:28.043Z,18.21
2022-08-05T21:57:29.196Z,18.05
2022-08-05T22:00:02.123Z,18.02
2022-08-05T22:02:30.545Z,18.02
2022-08-05T22:04:58.646Z,17.98
2022-08-05T22:07:39.889Z,17.92
2022-08-05T22:10:12.304Z,17.86
2022-08-05T22:12:40.152Z,17.82
2022-08-05T22:15:16.796Z,17.80
2022-08-05T22:18:03.630Z,17.87
2022-08-05T22:20:30.198Z,17.70
2022-08-05T22:23:21.532Z,17.67
2022-08-05T22:26:10.150Z,17.72
2022-08-05T22:28:38.724Z,17.68
2022-08-05T22:31:05.839Z,17.69
2022-08-05T22:33:58.407Z,17.69
2022-08-05T22:36:19.544Z,17.63
2022-08-05T22:38:51.546Z,17.51
2022-08-05T22:41:25.935Z,17.54
2022-08-05T22:44:08.160Z,17.51
2022-08-05T22:46:40.087Z,17.55
2022-08-05T22:49:12.514Z,17.51
2022-08-05T22:52:06.060Z,17.50
2022-08-05T22:54:35.634Z,17.42
2022-08-05T22:57:03.530Z,17.27
2022-08-05T22:59:48.287Z,17.27
2022-08-05T23:02:18.216Z,17.20
2022-08-05T23:04:51.632Z,17.13
2022-08-05T23:07:22.126Z,17.02
2022-08-05T23:09:58.428Z,17.01
2022-08-05T23:12:32.538Z,16.85
2022-08-05T23:15:00.013Z,16.89
2022-08-05T23:17:34.712Z,17.05
2022-08-05T23:20:16.522Z,16.99
2022-08-05T23:22:43.725Z,17.06
2022-08-05T23:25:17.153Z,16.91
2022-08-05T23:28:00.249Z,16.86
2022-08-05T23:30:28.972Z,16.92
2022-08-05T23:32:55.865Z,16.94
2022-08-05T23:35:24.361Z,16.88
2022-08-05T23:38:00.678Z,16.79
2022-08-05T23:40:27.501Z,16.87
2022-08-05T23:42:54.221Z,16.88
2022-08-05T23:45:21.062Z,16.87
2022-08-05T23:47:52.045Z,16.86
2022-08-05T23:50:20.546Z,16.77
2022-08-05T23:52:50.388Z,16.69
2022-08-05T23:55:19.087Z,16.79
2022-08-05T23:57:49.040Z,16.76
